createdAt,value
2018-05-23T00:02:20.327Z,12.00
2018-05-23T00:04:47.813Z,12.00
2018-05-23T00:07:15.309Z,11.90
2018-05-23T00:09:42.814Z,11.90
2018-05-23T00:12:11.056Z,11.90
2018-05-23T00:14:38.581Z,11.90
2018-05-23T00:17:06.163Z,11.80
2018-05-23T00:19:33.654Z,11.80
2018-05-23T00:22:01.176Z,11.80
2018-05-23T00:24:28.686Z,11.70
2018-05-23T00:26:56.977Z,11.60
2018-05-23T00:29:24.502Z,11.60
2018-05-23T00:31:52.750Z,11.50
2018-05-23T00:34:20.279Z,11.50
2018-05-23T00:36:47.801Z,11.40
2018-05-23T00:39:16.081Z,11.30
2018-05-23T00:41:44.324Z,11.40
2018-05-23T00:44:11.795Z,11.40
2018-05-23T00:46:39.306Z,11.40
2018-05-23T00:49:06.836Z,11.40
2018-05-23T00:51:34.394Z,11.30
2018-05-23T00:54:02.653Z,11.10
2018-05-23T00:56:30.160Z,11.10
2018-05-23T00:58:57.715Z,11.10
2018-05-23T01:01:25.178Z,11.10
2018-05-23T01:03:52.653Z,11.10
2018-05-23T01:06:20.201Z,11.10
2018-05-23T01:08:47.722Z,11.10
2018-05-23T01:11:15.185Z,11.10
2018-05-23T01:13:42.677Z,11.20
2018-05-23T01:16:10.213Z,11.10
2018-05-23T01:18:37.747Z,11.10
2018-05-23T01:21:05.287Z,11.00
2018-05-23T01:23:32.809Z,10.90
2018-05-23T01:26:00.282Z,10.90
2018-05-23T01:28:27.831Z,11.00
2018-05-23T01:30:56.113Z,11.00
2018-05-23T01:33:23.632Z,10.90
2018-05-23T01:35:51.113Z,10.90
2018-05-23T01:38:18.649Z,10.90
2018-05-23T01:40:46.151Z,10.90
2018-05-23T01:43:13.693Z,10.90
2018-05-23T01:45:41.980Z,11.00
2018-05-23T01:48:09.466Z,10.90
2018-05-23T01:50:37.721Z,10.90
2018-05-23T01:53:05.214Z,10.90
2018-05-23T01:55:32.706Z,10.90
2018-05-23T01:58:00.233Z,10.80
2018-05-23T02:00:27.717Z,10.80
2018-05-23T02:02:55.224Z,10.80
2018-05-23T02:05:22.722Z,10.80
2018-05-23T02:07:50.247Z,10.90
2018-05-23T02:10:18.541Z,11.00
2018-05-23T02:12:46.061Z,11.00
2018-05-23T02:15:13.575Z,11.00
2018-05-23T02:17:41.050Z,11.00
2018-05-23T02:20:08.570Z,11.00
2018-05-23T02:22:36.120Z,11.00
2018-05-23T02:25:04.414Z,11.00
2018-05-23T02:27:31.883Z,10.90
2018-05-23T02:29:59.417Z,10.90
2018-05-23T02:32:26.917Z,10.90
2018-05-23T02:34:54.401Z,10.90
2018-05-23T02:37:21.963Z,10.90
2018-05-23T02:39:49.512Z,10.80
2018-05-23T02:42:17.022Z,10.80
2018-05-23T02:44:44.554Z,10.80
2018-05-23T02:47:12.875Z,10.50
2018-05-23T02:49:40.398Z,10.50
2018-05-23T02:52:08.634Z,10.50
2018-05-23T02:54:36.119Z,10.50
2018-05-23T02:57:04.356Z,10.70
2018-05-23T02:59:31.872Z,10.70
2018-05-23T03:01:59.371Z,10.80
2018-05-23T03:04:26.887Z,10.80
2018-05-23T03:06:54.388Z,10.80
2018-05-23T03:09:21.862Z,10.80
2018-05-23T03:11:49.350Z,10.80
2018-05-23T03:14:17.594Z,10.80
2018-05-23T03:16:45.109Z,10.70
2018-05-23T03:19:12.622Z,10.70
2018-05-23T03:21:40.154Z,10.70
2018-05-23T03:24:07.683Z,10.70
2018-05-23T03:26:35.165Z,10.70
2018-05-23T03:29:02.692Z,10.70
2018-05-23T03:31:30.216Z,10.60
2018-05-23T03:33:58.511Z,10.60
2018-05-23T03:36:26.762Z,10.70
2018-05-23T03:38:55.056Z,10.70
2018-05-23T03:41:23.310Z,10.70
2018-05-23T03:43:50.806Z,10.70
2018-05-23T03:46:18.334Z,10.60
2018-05-23T03:48:46.594Z,10.60
2018-05-23T03:51:14.111Z,10.60
2018-05-23T03:53:41.608Z,10.70
2018-05-23T03:56:09.138Z,10.70
2018-05-23T03:58:36.649Z,10.70
2018-05-23T04:01:16.794Z,10.80
2018-05-23T04:03:56.967Z,10.90
2018-05-23T04:06:37.078Z,10.90
2018-05-23T04:09:05.313Z,10.80
2018-05-23T04:11:32.782Z,10.90
2018-05-23T04:14:00.267Z,10.90
2018-05-23T04:16:27.731Z,10.90
2018-05-23T04:18:55.269Z,11.00
2018-05-23T04:21:23.526Z,11.20
2018-05-23T04:23:50.995Z,11.20
2018-05-23T04:26:18.504Z,11.30
2018-05-23T04:28:46.758Z,11.70
2018-05-23T04:31:14.298Z,11.60
2018-05-23T04:33:41.928Z,11.80
2018-05-23T04:36:09.482Z,11.80
2018-05-23T04:38:36.980Z,11.90
2018-05-23T04:41:04.510Z,12.00
2018-05-23T04:43:32.013Z,12.10
2018-05-23T04:45:59.499Z,12.20
2018-05-23T04:48:27.004Z,12.50
2018-05-23T04:50:54.479Z,12.80
2018-05-23T04:53:21.954Z,13.10
2018-05-23T04:55:50.251Z,13.70
2018-05-23T04:58:17.750Z,13.60
2018-05-23T05:00:45.250Z,13.80
2018-05-23T05:03:13.482Z,14.20
2018-05-23T05:05:41.014Z,14.20
2018-05-23T05:08:08.525Z,14.30
2018-05-23T05:10:36.030Z,14.40
2018-05-23T05:13:03.500Z,14.50
2018-05-23T05:15:31.038Z,14.60
2018-05-23T05:17:58.565Z,14.70
2018-05-23T05:20:26.848Z,14.90
2018-05-23T05:22:55.107Z,14.90
2018-05-23T05:25:22.642Z,14.90
2018-05-23T05:27:50.168Z,14.90
2018-05-23T05:30:17.722Z,15.00
2018-05-23T05:32:45.226Z,15.00
2018-05-23T05:35:12.697Z,15.30
2018-05-23T05:37:40.218Z,15.70
2018-05-23T05:40:07.701Z,16.20
2018-05-23T05:42:35.187Z,16.80
2018-05-23T05:45:03.490Z,18.20
2018-05-23T05:47:31.032Z,18.10
2018-05-23T05:49:58.547Z,19.00
2018-05-23T05:52:26.034Z,19.60
2018-05-23T05:54:54.350Z,20.70
2018-05-23T05:57:21.894Z,20.70
2018-05-23T05:59:49.418Z,20.70
2018-05-23T06:02:16.948Z,21.10
2018-05-23T06:04:44.474Z,21.40
2018-05-23T06:07:12.028Z,21.90
2018-05-23T06:09:39.634Z,21.90
2018-05-23T06:12:07.149Z,22.30
2018-05-23T06:14:34.660Z,22.90
2018-05-23T06:17:02.201Z,23.00
2018-05-23T06:19:29.699Z,22.60
2018-05-23T06:21:58.006Z,22.90
2018-05-23T06:24:25.549Z,22.90
2018-05-23T06:26:53.073Z,23.70
2018-05-23T06:29:20.605Z,23.80
2018-05-23T06:31:48.128Z,23.30
2018-05-23T06:34:15.636Z,23.10
2018-05-23T06:36:43.134Z,22.80
2018-05-23T06:39:10.650Z,22.90
2018-05-23T06:41:38.167Z,23.10
2018-05-23T06:44:05.664Z,23.10
2018-05-23T06:46:33.210Z,22.80
2018-05-23T06:49:00.726Z,23.20
2018-05-23T06:51:28.253Z,23.30
2018-05-23T06:53:55.786Z,23.80
2018-05-23T06:56:23.290Z,24.00
2018-05-23T06:58:51.567Z,24.50
2018-05-23T07:01:19.858Z,24.90
2018-05-23T07:03:47.367Z,24.90
2018-05-23T07:06:14.957Z,25.20
2018-05-23T07:08:43.223Z,23.70
2018-05-23T07:11:11.563Z,24.60
2018-05-23T07:13:39.812Z,25.90
2018-05-23T07:16:07.380Z,25.90
2018-05-23T07:18:34.900Z,26.10
2018-05-23T07:21:03.162Z,26.60
2018-05-23T07:23:30.654Z,26.60
2018-05-23T07:25:58.210Z,25.00
2018-05-23T07:28:25.719Z,24.00
2018-05-23T07:30:53.240Z,23.80
2018-05-23T07:33:20.726Z,23.50
2018-05-23T07:35:48.264Z,23.10
2018-05-23T07:38:15.894Z,22.50
2018-05-23T07:40:43.370Z,21.70
2018-05-23T07:43:10.852Z,21.00
2018-05-23T07:45:38.368Z,20.70
2018-05-23T07:48:05.906Z,20.40
2018-05-23T07:50:34.155Z,20.10
2018-05-23T07:53:01.675Z,20.00
2018-05-23T07:55:29.219Z,19.90
2018-05-23T07:57:56.693Z,19.90
2018-05-23T08:00:24.222Z,19.60
2018-05-23T08:02:52.481Z,19.60
2018-05-23T08:05:19.998Z,19.60
2018-05-23T08:07:47.545Z,19.60
2018-05-23T08:10:15.030Z,19.70
2018-05-23T08:12:42.549Z,19.70
2018-05-23T08:15:10.090Z,19.70
2018-05-23T08:17:38.384Z,19.60
2018-05-23T08:20:06.620Z,19.30
2018-05-23T08:22:34.180Z,19.20
2018-05-23T08:25:01.721Z,19.30
2018-05-23T08:27:29.268Z,19.20
2018-05-23T08:29:56.745Z,19.10
2018-05-23T08:32:24.255Z,19.20
2018-05-23T08:34:51.783Z,19.50
2018-05-23T08:37:20.031Z,19.90
2018-05-23T08:39:47.552Z,19.80
2018-05-23T08:42:15.057Z,20.30
2018-05-23T08:44:42.589Z,20.50
2018-05-23T08:47:10.110Z,20.80
2018-05-23T08:49:37.632Z,21.70
2018-05-23T08:52:05.110Z,21.90
2018-05-23T08:54:33.421Z,21.80
2018-05-23T08:57:00.933Z,21.80
2018-05-23T08:59:29.249Z,20.80
2018-05-23T09:01:56.749Z,20.80
2018-05-23T09:04:24.255Z,21.00
2018-05-23T09:06:52.520Z,21.00
2018-05-23T09:09:20.063Z,21.10
2018-05-23T09:11:48.313Z,21.60
2018-05-23T09:14:15.825Z,21.50
2018-05-23T09:16:43.337Z,22.00
2018-05-23T09:19:10.863Z,22.20
2018-05-23T09:21:38.381Z,22.60
2018-05-23T09:24:05.866Z,22.80
2018-05-23T09:26:33.373Z,22.90
2018-05-23T09:29:00.901Z,23.00
2018-05-23T09:31:28.400Z,22.80
2018-05-23T09:33:56.833Z,22.80
2018-05-23T09:36:24.346Z,22.90
2018-05-23T09:38:52.661Z,23.00
2018-05-23T09:41:20.156Z,23.00
2018-05-23T09:43:47.655Z,23.50
2018-05-23T09:46:15.114Z,23.80
2018-05-23T09:48:42.678Z,23.90
2018-05-23T09:51:10.104Z,23.60
2018-05-23T09:53:38.342Z,23.30
2018-05-23T09:56:05.806Z,23.30
2018-05-23T09:58:33.290Z,23.50
2018-05-23T10:01:01.523Z,23.80
2018-05-23T10:03:29.040Z,23.80
2018-05-23T10:05:56.553Z,23.80
2018-05-23T10:08:24.080Z,23.80
2018-05-23T10:10:51.599Z,23.80
2018-05-23T10:13:19.825Z,23.90
2018-05-23T10:15:47.365Z,23.90
2018-05-23T10:18:14.845Z,23.70
2018-05-23T10:20:42.369Z,23.50
2018-05-23T10:23:09.876Z,23.50
2018-05-23T10:25:37.402Z,23.20
2018-05-23T10:28:04.869Z,22.80
2018-05-23T10:30:32.393Z,23.00
2018-05-23T10:32:59.857Z,23.10
2018-05-23T10:35:27.350Z,23.20
2018-05-23T10:37:54.848Z,23.30
2018-05-23T10:40:23.124Z,23.00
2018-05-23T10:42:51.405Z,23.20
2018-05-23T10:45:19.697Z,23.30
2018-05-23T10:47:47.211Z,23.30
2018-05-23T10:50:14.716Z,23.50
2018-05-23T10:52:42.211Z,23.70
2018-05-23T10:55:09.689Z,23.80
2018-05-23T10:57:37.159Z,23.90
2018-05-23T11:00:05.502Z,24.00
2018-05-23T11:02:32.983Z,23.90
2018-05-23T11:05:00.518Z,23.70
2018-05-23T11:07:28.032Z,23.80
2018-05-23T11:09:55.507Z,23.90
2018-05-23T11:12:23.020Z,23.80
2018-05-23T11:14:50.577Z,23.70
2018-05-23T11:17:18.065Z,23.90
2018-05-23T11:19:45.610Z,23.90
2018-05-23T11:22:13.878Z,23.20
2018-05-23T11:24:42.122Z,23.00
2018-05-23T11:27:09.618Z,23.00
2018-05-23T11:29:37.903Z,23.00
2018-05-23T11:32:05.410Z,23.00
2018-05-23T11:34:32.942Z,23.00
2018-05-23T11:37:00.461Z,22.90
2018-05-23T11:39:28.736Z,23.30
2018-05-23T11:41:57.082Z,23.70
2018-05-23T11:44:25.374Z,23.90
2018-05-23T11:46:52.847Z,23.90
2018-05-23T11:49:21.125Z,23.60
2018-05-23T11:51:49.393Z,23.20
2018-05-23T11:54:17.670Z,23.10
2018-05-23T11:56:45.944Z,23.40
2018-05-23T11:59:14.212Z,23.50
2018-05-23T12:01:41.747Z,23.50
2018-05-23T12:04:09.253Z,23.10
2018-05-23T12:06:37.540Z,22.90
2018-05-23T12:09:06.003Z,22.90
2018-05-23T12:11:34.300Z,22.60
2018-05-23T12:14:01.769Z,22.60
2018-05-23T12:16:29.288Z,22.60
2018-05-23T12:18:57.548Z,22.70
2018-05-23T12:21:25.064Z,22.70
2018-05-23T12:23:52.531Z,22.60
2018-05-23T12:26:20.019Z,22.80
2018-05-23T12:28:47.538Z,22.80
2018-05-23T12:31:15.070Z,22.80
2018-05-23T12:33:42.567Z,22.80
2018-05-23T12:36:10.043Z,22.90
2018-05-23T12:38:37.561Z,22.70
2018-05-23T12:41:05.153Z,22.50
2018-05-23T12:43:33.359Z,23.00
2018-05-23T12:46:01.650Z,23.00
2018-05-23T12:48:29.171Z,23.00
2018-05-23T12:50:56.709Z,23.20
2018-05-23T12:53:24.209Z,22.80
2018-05-23T12:55:52.480Z,21.70
2018-05-23T12:58:20.754Z,21.30
2018-05-23T13:00:49.002Z,21.10
2018-05-23T13:03:16.547Z,21.00
2018-05-23T13:05:44.095Z,21.00
2018-05-23T13:08:11.619Z,21.00
2018-05-23T13:10:39.866Z,21.00
2018-05-23T13:13:08.137Z,20.80
2018-05-23T13:15:36.390Z,20.80
2018-05-23T13:18:03.866Z,20.80
2018-05-23T13:20:31.407Z,20.40
2018-05-23T13:22:58.926Z,20.00
2018-05-23T13:25:26.449Z,19.80
2018-05-23T13:27:54.699Z,19.30
2018-05-23T13:30:22.212Z,19.30
2018-05-23T13:32:49.730Z,18.90
2018-05-23T13:35:17.250Z,18.30
2018-05-23T13:37:44.774Z,18.00
2018-05-23T13:40:12.294Z,17.80
2018-05-23T13:42:39.805Z,17.70
2018-05-23T13:45:07.313Z,17.60
2018-05-23T13:47:34.819Z,17.50
2018-05-23T13:50:02.280Z,17.50
2018-05-23T13:52:29.806Z,17.40
2018-05-23T13:54:58.085Z,17.30
2018-05-23T13:57:26.378Z,17.30
2018-05-23T13:59:53.863Z,17.30
2018-05-23T14:02:21.460Z,17.20
2018-05-23T14:04:48.922Z,17.10
2018-05-23T14:07:17.226Z,17.20
2018-05-23T14:09:44.767Z,17.10
2018-05-23T14:12:12.251Z,17.10
2018-05-23T14:14:39.705Z,17.10
2018-05-23T14:17:07.216Z,17.10
2018-05-23T14:19:34.748Z,17.20
2018-05-23T14:22:02.262Z,17.20
2018-05-23T14:24:29.789Z,17.20
2018-05-23T14:26:57.262Z,17.30
2018-05-23T14:29:25.533Z,17.40
2018-05-23T14:31:53.039Z,17.30
2018-05-23T14:34:20.521Z,17.50
2018-05-23T14:36:48.014Z,17.60
2018-05-23T14:39:16.293Z,17.90
2018-05-23T14:41:44.595Z,18.00
2018-05-23T14:44:12.100Z,18.00
2018-05-23T14:46:39.619Z,18.30
2018-05-23T14:49:07.181Z,18.40
2018-05-23T14:51:34.670Z,18.40
2018-05-23T14:54:02.186Z,18.50
2018-05-23T14:56:30.062Z,18.60
2018-05-23T14:58:57.567Z,18.60
2018-05-23T15:01:25.054Z,18.40
2018-05-23T15:03:52.578Z,18.20
2018-05-23T15:06:20.065Z,18.10
2018-05-23T15:08:48.358Z,17.70
2018-05-23T15:11:15.865Z,17.70
2018-05-23T15:13:43.395Z,17.50
2018-05-23T15:16:10.867Z,17.10
2018-05-23T15:18:38.343Z,17.00
2018-05-23T15:21:05.849Z,17.00
2018-05-23T15:23:33.370Z,17.00
2018-05-23T15:26:01.605Z,16.90
2018-05-23T15:28:29.115Z,17.00
2018-05-23T15:30:57.383Z,17.00
2018-05-23T15:33:25.677Z,16.90
2018-05-23T15:35:53.176Z,17.00
2018-05-23T15:38:20.684Z,17.00
2018-05-23T15:40:48.914Z,17.00
2018-05-23T15:43:16.435Z,17.00
2018-05-23T15:45:43.940Z,17.00
2018-05-23T15:48:11.451Z,17.10
2018-05-23T15:50:38.910Z,17.00
2018-05-23T15:53:06.410Z,17.00
2018-05-23T15:55:33.928Z,17.10
2018-05-23T15:58:01.434Z,17.10
2018-05-23T16:00:29.740Z,17.00
2018-05-23T16:02:57.328Z,17.00
2018-05-23T16:05:24.716Z,16.70
2018-05-23T16:07:52.241Z,16.50
2018-05-23T16:10:19.703Z,16.40
2018-05-23T16:12:47.182Z,16.30
2018-05-23T16:15:14.650Z,16.30
2018-05-23T16:17:42.154Z,16.00
2018-05-23T16:20:09.652Z,15.70
2018-05-23T16:22:37.169Z,15.40
2018-05-23T16:25:04.650Z,15.20
2018-05-23T16:27:32.114Z,15.10
2018-05-23T16:29:59.602Z,15.10
2018-05-23T16:32:27.108Z,15.00
2018-05-23T16:34:54.574Z,15.00
2018-05-23T16:37:22.099Z,15.00
2018-05-23T16:39:50.384Z,15.00
2018-05-23T16:42:17.884Z,15.00
2018-05-23T16:44:45.358Z,15.00
2018-05-23T16:47:12.859Z,15.00
2018-05-23T16:49:40.368Z,15.00
2018-05-23T16:52:07.860Z,15.10
2018-05-23T16:54:35.377Z,15.10
2018-05-23T16:57:02.880Z,15.10
2018-05-23T16:59:31.190Z,15.10
2018-05-23T17:01:58.678Z,15.00
2018-05-23T17:04:26.173Z,15.10
2018-05-23T17:06:54.406Z,15.10
2018-05-23T17:09:21.944Z,15.10
2018-05-23T17:11:49.406Z,15.10
2018-05-23T17:14:16.919Z,15.10
2018-05-23T17:16:45.191Z,15.20
2018-05-23T17:19:13.462Z,15.20
2018-05-23T17:21:41.746Z,15.20
2018-05-23T17:24:10.046Z,15.20
2018-05-23T17:26:37.510Z,15.20
2018-05-23T17:29:04.994Z,15.30
2018-05-23T17:31:32.510Z,15.30
2018-05-23T17:34:00.023Z,15.30
2018-05-23T17:36:27.546Z,15.30
2018-05-23T17:38:55.063Z,15.30
2018-05-23T17:41:23.323Z,15.30
2018-05-23T17:43:50.839Z,15.20
2018-05-23T17:46:18.358Z,15.30
2018-05-23T17:48:46.652Z,15.30
2018-05-23T17:51:14.164Z,15.20
2018-05-23T17:53:41.658Z,15.20
2018-05-23T17:56:09.174Z,15.20
2018-05-23T17:58:36.677Z,15.20
2018-05-23T18:01:05.042Z,15.20
2018-05-23T18:03:33.334Z,15.20
2018-05-23T18:06:00.929Z,15.20
2018-05-23T18:08:29.155Z,15.10
2018-05-23T18:10:57.407Z,15.20
2018-05-23T18:13:24.902Z,15.10
2018-05-23T18:15:52.407Z,15.20
2018-05-23T18:18:19.912Z,15.20
2018-05-23T18:20:47.401Z,15.20
2018-05-23T18:23:14.874Z,15.20
2018-05-23T18:25:42.400Z,15.20
2018-05-23T18:28:09.914Z,15.20
2018-05-23T18:30:37.394Z,15.20
2018-05-23T18:33:04.921Z,15.20
2018-05-23T18:35:32.436Z,15.20
2018-05-23T18:37:59.902Z,15.10
2018-05-23T18:40:27.406Z,15.10
2018-05-23T18:42:55.693Z,15.10
2018-05-23T18:45:23.939Z,15.10
2018-05-23T18:47:51.434Z,15.10
2018-05-23T18:50:18.942Z,15.10
2018-05-23T18:52:46.407Z,15.10
2018-05-23T18:55:13.931Z,15.00
2018-05-23T18:57:41.396Z,15.00
2018-05-23T19:00:08.917Z,15.00
2018-05-23T19:02:37.188Z,15.00
2018-05-23T19:05:05.479Z,15.00
2018-05-23T19:07:33.725Z,15.00
2018-05-23T19:10:01.228Z,15.00
2018-05-23T19:12:28.753Z,15.00
2018-05-23T19:14:56.250Z,15.10
2018-05-23T19:17:23.768Z,15.10
2018-05-23T19:19:52.220Z,15.10
2018-05-23T19:22:19.586Z,15.10
2018-05-23T19:24:47.081Z,15.20
2018-05-23T19:27:14.593Z,15.30
2018-05-23T19:29:42.082Z,15.20
2018-05-23T19:32:10.382Z,15.20
2018-05-23T19:34:37.911Z,15.20
2018-05-23T19:37:06.217Z,15.20
2018-05-23T19:39:33.746Z,15.20
2018-05-23T19:42:02.054Z,15.00
2018-05-23T19:44:29.550Z,15.10
2018-05-23T19:46:57.833Z,14.90
2018-05-23T19:49:25.336Z,14.90
2018-05-23T19:51:52.874Z,14.90
2018-05-23T19:54:21.122Z,14.80
2018-05-23T19:56:48.637Z,14.80
2018-05-23T19:59:16.134Z,14.80
2018-05-23T20:01:43.610Z,14.80
2018-05-23T20:04:11.129Z,14.80
2018-05-23T20:06:38.643Z,14.80
2018-05-23T20:09:06.874Z,14.80
2018-05-23T20:11:34.363Z,14.80
2018-05-23T20:14:02.717Z,14.80
2018-05-23T20:16:30.936Z,14.80
2018-05-23T20:18:59.204Z,14.80
2018-05-23T20:21:27.488Z,14.90
2018-05-23T20:23:54.993Z,14.90
2018-05-23T20:26:22.559Z,14.90
2018-05-23T20:28:50.040Z,14.90
2018-05-23T20:31:19.023Z,14.90
2018-05-23T20:33:46.536Z,14.90
2018-05-23T20:36:14.040Z,14.90
2018-05-23T20:38:41.578Z,14.90
2018-05-23T20:41:09.866Z,14.80
2018-05-23T20:43:37.391Z,14.90
2018-05-23T20:46:04.881Z,14.80
2018-05-23T20:48:32.403Z,14.70
2018-05-23T20:50:59.897Z,14.70
2018-05-23T20:53:27.438Z,14.60
2018-05-23T20:55:54.938Z,14.60
2018-05-23T20:58:23.238Z,14.50
2018-05-23T21:00:51.588Z,14.40
2018-05-23T21:03:19.852Z,14.40
2018-05-23T21:05:47.393Z,14.40
2018-05-23T21:08:14.875Z,14.40
2018-05-23T21:10:43.152Z,14.30
2018-05-23T21:13:10.693Z,14.30
2018-05-23T21:15:38.179Z,14.40
2018-05-23T21:18:06.524Z,14.40
2018-05-23T21:20:34.046Z,14.40
2018-05-23T21:23:01.527Z,14.30
2018-05-23T21:25:29.002Z,14.30
2018-05-23T21:27:56.557Z,14.20
2018-05-23T21:30:23.983Z,14.20
2018-05-23T21:32:51.467Z,14.20
2018-05-23T21:35:18.998Z,14.10
2018-05-23T21:37:46.478Z,14.10
2018-05-23T21:40:14.011Z,14.10
2018-05-23T21:42:41.544Z,14.00
2018-05-23T21:45:09.045Z,14.00
2018-05-23T21:47:36.582Z,14.00
2018-05-23T21:50:04.051Z,14.00
2018-05-23T21:52:31.536Z,13.90
2018-05-23T21:54:59.012Z,13.80
2018-05-23T21:57:27.269Z,13.70
2018-05-23T21:59:54.778Z,13.70
2018-05-23T22:02:22.273Z,13.80
2018-05-23T22:04:49.801Z,13.70
2018-05-23T22:07:17.290Z,13.80
2018-05-23T22:09:44.794Z,13.70
2018-05-23T22:12:12.295Z,13.70
2018-05-23T22:14:39.811Z,13.60
2018-05-23T22:17:07.331Z,13.50
2018-05-23T22:19:34.845Z,13.50
2018-05-23T22:22:02.341Z,13.50
2018-05-23T22:24:29.873Z,13.50
2018-05-23T22:26:58.113Z,13.40
2018-05-23T22:29:26.389Z,13.50
2018-05-23T22:31:54.650Z,13.50
2018-05-23T22:34:22.919Z,13.50
2018-05-23T22:36:50.419Z,13.50
2018-05-23T22:39:17.922Z,13.50
2018-05-23T22:41:45.438Z,13.60
2018-05-23T22:44:12.945Z,13.60
2018-05-23T22:46:40.414Z,13.60
2018-05-23T22:49:08.729Z,13.60
2018-05-23T22:51:36.201Z,13.60
2018-05-23T22:54:03.712Z,13.70
2018-05-23T22:56:31.998Z,13.60
2018-05-23T22:58:59.527Z,13.60
2018-05-23T23:01:27.050Z,13.60
2018-05-23T23:03:54.533Z,13.50
2018-05-23T23:06:21.998Z,13.50
2018-05-23T23:08:49.507Z,13.50
2018-05-23T23:11:17.007Z,13.50
2018-05-23T23:13:44.532Z,13.50
2018-05-23T23:16:12.058Z,13.60
2018-05-23T23:18:39.572Z,13.50
2018-05-23T23:21:07.071Z,13.50
2018-05-23T23:23:34.598Z,13.40
2018-05-23T23:26:02.103Z,13.40
2018-05-23T23:28:29.574Z,13.30
2018-05-23T23:30:57.055Z,13.30
2018-05-23T23:33:24.574Z,13.40
2018-05-23T23:35:52.100Z,13.30
2018-05-23T23:38:20.363Z,13.30
2018-05-23T23:40:47.870Z,13.30
2018-05-23T23:43:15.362Z,13.30
2018-05-23T23:45:42.842Z,13.30
2018-05-23T23:48:11.117Z,13.20
2018-05-23T23:50:38.648Z,13.20
2018-05-23T23:53:06.155Z,13.20
2018-05-23T23:55:33.672Z,13.20
2018-05-23T23:58:01.171Z,13.20
